createdAt,value
2022-11-13T00:01:24.292Z,3.48
2022-11-13T00:03:53.042Z,3.47
2022-11-13T00:06:22.095Z,3.56
2022-11-13T00:08:54.507Z,3.53
2022-11-13T00:11:24.484Z,3.40
2022-11-13T00:13:53.181Z,3.32
2022-11-13T00:16:22.486Z,3.23
2022-11-13T00:18:51.092Z,3.16
2022-11-13T00:21:21.412Z,3.23
2022-11-13T00:23:50.234Z,3.24
2022-11-13T00:26:21.329Z,3.28
2022-11-13T00:28:55.037Z,2.99
2022-11-13T00:31:24.059Z,3.13
2022-11-13T00:36:41.737Z,2.97
2022-11-13T00:39:10.616Z,2.92
2022-11-13T00:41:39.196Z,2.97
2022-11-13T00:44:09.454Z,2.99
2022-11-13T00:46:38.099Z,2.97
2022-11-13T00:49:06.692Z,3.04
2022-11-13T00:51:35.352Z,2.97
2022-11-13T00:54:04.167Z,2.97
2022-11-13T00:56:32.900Z,2.91
2022-11-13T00:59:01.480Z,2.92
2022-11-13T01:01:32.438Z,3.06
2022-11-13T01:04:01.129Z,3.08
2022-11-13T01:06:30.125Z,3.03
2022-11-13T01:08:59.783Z,3.06
2022-11-13T01:11:29.748Z,3.04
2022-11-13T01:13:58.629Z,2.99
2022-11-13T01:16:28.581Z,2.98
2022-11-13T01:18:58.642Z,2.97
2022-11-13T01:21:28.537Z,2.97
2022-11-13T01:23:57.307Z,3.00
2022-11-13T01:26:27.653Z,2.97
2022-11-13T01:28:58.293Z,2.99
2022-11-13T01:31:28.917Z,2.99
2022-11-13T01:33:59.306Z,2.93
2022-11-13T01:36:29.291Z,2.89
2022-11-13T01:38:58.063Z,2.91
2022-11-13T01:41:28.567Z,2.89
2022-11-13T01:43:57.728Z,2.95
2022-11-13T01:46:29.191Z,2.87
2022-11-13T01:49:03.807Z,2.84
2022-11-13T01:51:35.367Z,2.82
2022-11-13T01:54:06.609Z,2.82
2022-11-13T01:56:35.240Z,2.82
2022-11-13T02:01:50.398Z,2.76
2022-11-13T02:04:20.407Z,2.75
2022-11-13T02:06:50.885Z,2.76
2022-11-13T02:09:22.455Z,2.81
2022-11-13T02:11:51.560Z,2.75
2022-11-13T02:14:21.370Z,2.73
2022-11-13T02:16:52.491Z,2.75
2022-11-13T02:19:27.461Z,2.73
2022-11-13T02:22:00.769Z,2.76
2022-11-13T02:24:32.957Z,2.77
2022-11-13T02:27:04.348Z,2.78
2022-11-13T02:29:33.283Z,2.72
2022-11-13T02:32:01.853Z,2.71
2022-11-13T02:34:30.447Z,2.70
2022-11-13T02:36:59.052Z,2.65
2022-11-13T02:39:27.648Z,2.54
2022-11-13T02:41:57.632Z,2.56
2022-11-13T02:44:26.222Z,2.55
2022-11-13T02:46:54.807Z,2.54
2022-11-13T02:49:23.409Z,2.49
2022-11-13T02:51:51.993Z,2.52
2022-11-13T02:54:20.623Z,2.57
2022-11-13T02:56:49.210Z,2.58
2022-11-13T02:59:19.164Z,2.61
2022-11-13T03:01:48.015Z,2.65
2022-11-13T03:04:16.721Z,2.50
2022-11-13T03:06:45.498Z,2.49
2022-11-13T03:09:14.175Z,2.51
2022-11-13T03:11:44.019Z,2.57
2022-11-13T03:14:12.597Z,2.65
2022-11-13T03:16:42.591Z,2.65
2022-11-13T03:19:11.162Z,2.66
2022-11-13T03:21:39.775Z,2.60
2022-11-13T03:24:08.363Z,2.66
2022-11-13T03:26:36.976Z,2.69
2022-11-13T03:29:05.577Z,2.54
2022-11-13T03:31:34.160Z,2.50
2022-11-13T03:34:04.492Z,2.44
2022-11-13T03:36:33.132Z,2.44
2022-11-13T03:39:01.777Z,2.44
2022-11-13T03:41:30.473Z,2.35
2022-11-13T03:43:59.039Z,2.33
2022-11-13T03:46:27.624Z,2.38
2022-11-13T03:48:56.245Z,2.30
2022-11-13T03:51:26.390Z,2.31
2022-11-13T03:53:55.311Z,2.22
2022-11-13T03:56:24.086Z,2.27
2022-11-13T03:58:52.693Z,2.31
2022-11-13T04:01:21.346Z,2.27
2022-11-13T04:03:50.026Z,2.32
2022-11-13T04:06:18.605Z,2.35
2022-11-13T04:08:48.588Z,2.36
2022-11-13T04:11:17.167Z,2.36
2022-11-13T04:13:45.763Z,2.37
2022-11-13T04:16:14.403Z,2.32
2022-11-13T04:18:43.021Z,2.34
2022-11-13T04:21:11.665Z,2.33
2022-11-13T04:23:40.238Z,2.35
2022-11-13T04:26:10.183Z,2.41
2022-11-13T04:28:38.781Z,2.25
2022-11-13T04:31:07.375Z,2.26
2022-11-13T04:33:35.981Z,2.29
2022-11-13T04:36:04.855Z,2.30
2022-11-13T04:38:33.440Z,2.28
2022-11-13T04:41:19.394Z,2.22
2022-11-13T04:43:49.367Z,2.28
2022-11-13T04:46:17.950Z,2.23
2022-11-13T04:48:46.523Z,2.23
2022-11-13T04:51:15.126Z,2.21
2022-11-13T04:53:43.690Z,2.22
2022-11-13T04:56:12.303Z,2.17
2022-11-13T04:58:40.913Z,2.17
2022-11-13T05:01:10.850Z,2.07
2022-11-13T05:03:39.436Z,2.07
2022-11-13T05:06:09.703Z,2.04
2022-11-13T05:08:38.379Z,2.00
2022-11-13T05:11:07.311Z,1.97
2022-11-13T05:13:37.332Z,2.02
2022-11-13T05:16:07.735Z,2.03
2022-11-13T05:18:38.730Z,1.98
2022-11-13T05:21:08.370Z,1.98
2022-11-13T05:23:37.120Z,1.93
2022-11-13T05:26:07.568Z,1.87
2022-11-13T05:28:36.763Z,1.84
2022-11-13T05:31:06.866Z,1.88
2022-11-13T05:33:36.869Z,1.92
2022-11-13T05:36:07.080Z,1.82
2022-11-13T05:38:36.115Z,1.83
2022-11-13T05:41:05.276Z,1.81
2022-11-13T05:43:34.106Z,1.85
2022-11-13T05:46:03.507Z,1.92
2022-11-13T05:48:32.201Z,1.92
2022-11-13T05:51:06.581Z,1.94
2022-11-13T05:53:36.087Z,1.96
2022-11-13T05:56:07.188Z,1.89
2022-11-13T05:58:35.957Z,1.83
2022-11-13T06:01:09.481Z,1.87
2022-11-13T06:03:38.563Z,1.87
2022-11-13T06:06:10.128Z,1.82
2022-11-13T06:08:39.017Z,1.90
2022-11-13T06:11:08.955Z,1.84
2022-11-13T06:13:37.705Z,1.83
2022-11-13T06:16:08.060Z,1.79
2022-11-13T06:18:37.113Z,1.80
2022-11-13T06:21:08.755Z,1.89
2022-11-13T06:23:38.608Z,1.90
2022-11-13T06:26:09.044Z,1.87
2022-11-13T06:28:38.429Z,1.94
2022-11-13T06:31:09.196Z,1.88
2022-11-13T06:33:38.293Z,1.87
2022-11-13T06:36:11.437Z,1.86
2022-11-13T06:38:41.325Z,1.85
2022-11-13T06:41:11.284Z,1.87
2022-11-13T06:43:40.203Z,1.86
2022-11-13T06:46:11.417Z,1.81
2022-11-13T06:48:40.051Z,1.95
2022-11-13T06:51:15.652Z,2.06
2022-11-13T06:53:44.471Z,2.05
2022-11-13T06:56:13.326Z,2.07
2022-11-13T06:58:43.665Z,2.04
2022-11-13T07:01:13.619Z,2.15
2022-11-13T07:03:43.096Z,2.19
2022-11-13T07:06:14.880Z,2.22
2022-11-13T07:08:44.158Z,2.22
2022-11-13T07:11:13.872Z,2.24
2022-11-13T07:13:43.261Z,2.23
2022-11-13T07:16:17.309Z,2.27
2022-11-13T07:18:50.711Z,2.24
2022-11-13T07:21:21.354Z,2.26
2022-11-13T07:23:50.708Z,2.21
2022-11-13T07:26:19.691Z,2.21
2022-11-13T07:28:48.841Z,2.24
2022-11-13T07:31:18.615Z,2.26
2022-11-13T07:33:48.970Z,2.22
2022-11-13T07:36:17.723Z,2.27
2022-11-13T07:38:47.656Z,2.38
2022-11-13T07:41:16.239Z,2.41
2022-11-13T07:43:44.827Z,2.43
2022-11-13T07:46:13.403Z,2.44
2022-11-13T07:48:41.984Z,2.46
2022-11-13T07:51:10.578Z,2.51
2022-11-13T07:53:39.939Z,2.53
2022-11-13T07:56:10.127Z,2.51
2022-11-13T07:58:38.716Z,2.62
2022-11-13T08:01:07.901Z,2.54
2022-11-13T08:03:37.172Z,2.58
2022-11-13T08:06:07.789Z,2.53
2022-11-13T08:08:36.423Z,2.56
2022-11-13T08:11:06.770Z,2.61
2022-11-13T08:13:37.957Z,2.61
2022-11-13T08:16:07.107Z,2.63
2022-11-13T08:18:35.707Z,2.69
2022-11-13T08:21:08.088Z,2.74
2022-11-13T08:23:41.767Z,2.83
2022-11-13T08:26:10.902Z,2.86
2022-11-13T08:28:41.106Z,2.85
2022-11-13T08:31:11.358Z,2.89
2022-11-13T08:33:39.996Z,2.86
2022-11-13T08:36:09.323Z,2.70
2022-11-13T08:38:38.569Z,2.64
2022-11-13T08:41:09.665Z,2.77
2022-11-13T08:43:38.463Z,2.88
2022-11-13T08:46:08.947Z,2.95
2022-11-13T08:48:37.692Z,2.92
2022-11-13T08:51:06.651Z,2.85
2022-11-13T08:53:35.288Z,2.93
2022-11-13T08:56:04.298Z,3.02
2022-11-13T08:58:39.032Z,2.99
2022-11-13T09:01:09.061Z,2.92
2022-11-13T09:03:37.718Z,3.00
2022-11-13T09:06:07.354Z,3.03
2022-11-13T09:08:36.098Z,3.08
2022-11-13T09:11:06.065Z,3.05
2022-11-13T09:13:38.685Z,3.18
2022-11-13T09:16:12.800Z,3.23
2022-11-13T09:18:41.462Z,3.30
2022-11-13T09:21:11.043Z,3.38
2022-11-13T09:23:39.663Z,3.43
2022-11-13T09:26:08.349Z,3.25
2022-11-13T09:28:53.725Z,3.28
2022-11-13T09:31:23.716Z,3.37
2022-11-13T09:33:52.365Z,3.45
2022-11-13T09:36:20.972Z,3.45
2022-11-13T09:38:49.593Z,3.53
2022-11-13T09:41:20.194Z,3.59
2022-11-13T09:43:55.306Z,3.49
2022-11-13T09:46:37.417Z,3.42
2022-11-13T09:49:15.767Z,3.50
2022-11-13T09:51:48.887Z,3.67
2022-11-13T09:54:17.756Z,3.72
2022-11-13T09:56:51.147Z,3.71
2022-11-13T09:59:25.912Z,3.70
2022-11-13T10:02:01.445Z,3.81
2022-11-13T10:04:38.906Z,3.84
2022-11-13T10:07:19.953Z,3.46
2022-11-13T10:09:58.517Z,3.52
2022-11-13T10:12:28.530Z,3.67
2022-11-13T10:14:58.473Z,3.50
2022-11-13T10:17:33.020Z,3.54
2022-11-13T10:20:05.067Z,3.38
2022-11-13T10:22:38.489Z,3.54
2022-11-13T10:25:13.941Z,3.67
2022-11-13T10:27:43.025Z,3.85
2022-11-13T10:30:16.314Z,3.89
2022-11-13T10:32:47.356Z,3.97
2022-11-13T10:35:29.938Z,3.73
2022-11-13T10:38:07.741Z,3.80
2022-11-13T10:40:39.386Z,4.03
2022-11-13T10:43:15.478Z,4.12
2022-11-13T10:45:55.167Z,4.19
2022-11-13T10:48:29.028Z,4.29
2022-11-13T10:51:00.746Z,4.15
2022-11-13T10:53:40.582Z,4.31
2022-11-13T10:56:26.564Z,4.40
2022-11-13T10:59:03.161Z,4.19
2022-11-13T11:01:31.854Z,4.38
2022-11-13T11:04:04.572Z,4.63
2022-11-13T11:06:57.647Z,4.84
2022-11-13T11:09:24.994Z,4.87
2022-11-13T11:12:30.362Z,4.98
2022-11-13T11:15:19.433Z,5.14
2022-11-13T11:17:50.469Z,5.37
2022-11-13T11:20:25.173Z,5.31
2022-11-13T11:22:56.218Z,5.47
2022-11-13T11:25:33.443Z,5.64
2022-11-13T11:28:05.976Z,5.68
2022-11-13T11:30:41.205Z,5.84
2022-11-13T11:33:14.399Z,5.88
2022-11-13T11:35:46.796Z,5.95
2022-11-13T11:38:19.599Z,6.11
2022-11-13T11:40:51.410Z,6.23
2022-11-13T11:43:23.025Z,6.16
2022-11-13T11:45:51.807Z,6.27
2022-11-13T11:48:23.219Z,6.47
2022-11-13T11:50:59.657Z,6.68
2022-11-13T11:53:34.658Z,6.76
2022-11-13T11:56:17.563Z,6.82
2022-11-13T11:59:00.664Z,6.93
2022-11-13T12:01:40.383Z,7.15
2022-11-13T12:04:18.512Z,7.35
2022-11-13T12:06:57.992Z,7.41
2022-11-13T12:09:30.052Z,7.46
2022-11-13T12:12:06.962Z,7.61
2022-11-13T12:14:43.388Z,7.74
2022-11-13T12:17:27.697Z,7.70
2022-11-13T12:20:03.245Z,7.95
2022-11-13T12:22:43.344Z,8.09
2022-11-13T12:25:18.606Z,8.19
2022-11-13T12:27:54.333Z,8.25
2022-11-13T12:30:26.374Z,8.13
2022-11-13T12:33:04.706Z,8.27
2022-11-13T12:35:33.395Z,8.40
2022-11-13T12:38:12.852Z,8.48
2022-11-13T12:40:46.396Z,8.52
2022-11-13T12:43:31.158Z,8.64
2022-11-13T12:46:01.777Z,8.61
2022-11-13T12:48:34.685Z,8.73
2022-11-13T12:51:04.922Z,8.78
2022-11-13T12:53:45.840Z,8.86
2022-11-13T12:56:29.870Z,9.04
2022-11-13T13:01:50.333Z,9.11
2022-11-13T13:04:49.459Z,9.13
2022-11-13T13:07:35.023Z,9.24
2022-11-13T13:10:14.061Z,9.41
2022-11-13T13:12:50.177Z,9.33
2022-11-13T13:15:38.217Z,9.39
2022-11-13T13:18:11.743Z,9.45
2022-11-13T13:20:41.290Z,9.40
2022-11-13T13:23:12.996Z,9.51
2022-11-13T13:25:42.977Z,9.55
2022-11-13T13:28:21.632Z,9.67
2022-11-13T13:30:55.817Z,9.70
2022-11-13T13:33:31.501Z,9.64
2022-11-13T13:36:09.194Z,9.58
2022-11-13T13:38:44.774Z,9.49
2022-11-13T13:41:27.196Z,9.56
2022-11-13T13:44:05.833Z,9.61
2022-11-13T13:46:35.522Z,9.64
2022-11-13T13:49:05.938Z,9.59
2022-11-13T13:51:38.034Z,9.61
2022-11-13T13:54:08.237Z,9.58
2022-11-13T13:56:43.079Z,9.56
2022-11-13T13:59:16.078Z,9.52
2022-11-13T14:01:54.769Z,9.55
2022-11-13T14:04:24.450Z,9.54
2022-11-13T14:06:54.536Z,9.49
2022-11-13T14:09:24.482Z,9.42
2022-11-13T14:12:07.898Z,9.39
2022-11-13T14:14:40.207Z,9.40
2022-11-13T14:17:11.134Z,9.35
2022-11-13T14:19:39.832Z,9.31
2022-11-13T14:22:09.799Z,9.26
2022-11-13T14:24:46.204Z,9.19
2022-11-13T14:27:19.332Z,9.21
2022-11-13T14:29:49.808Z,9.17
2022-11-13T14:32:22.239Z,9.19
2022-11-13T14:34:53.279Z,9.08
2022-11-13T14:37:25.625Z,9.03
2022-11-13T14:39:55.595Z,9.01
2022-11-13T14:42:28.552Z,8.99
2022-11-13T14:45:12.546Z,8.97
2022-11-13T14:47:41.321Z,8.90
2022-11-13T14:50:21.221Z,8.83
2022-11-13T14:52:57.615Z,8.84
2022-11-13T14:55:29.415Z,8.86
2022-11-13T14:57:59.965Z,8.75
2022-11-13T15:00:32.086Z,8.81
2022-11-13T15:03:01.814Z,8.76
2022-11-13T15:05:30.535Z,8.74
2022-11-13T15:07:59.516Z,8.67
2022-11-13T15:10:29.462Z,8.63
2022-11-13T15:12:59.500Z,8.60
2022-11-13T15:15:30.152Z,8.53
2022-11-13T15:17:58.846Z,8.48
2022-11-13T15:20:29.264Z,8.43
2022-11-13T15:22:59.770Z,8.40
2022-11-13T15:25:28.433Z,8.44
2022-11-13T15:27:57.094Z,8.36
2022-11-13T15:30:27.100Z,8.33
2022-11-13T15:32:57.162Z,8.31
2022-11-13T15:35:26.344Z,8.24
2022-11-13T15:37:55.031Z,8.16
2022-11-13T15:40:23.690Z,8.09
2022-11-13T15:42:52.300Z,8.06
2022-11-13T15:45:21.013Z,8.01
2022-11-13T15:47:51.021Z,7.91
2022-11-13T15:50:19.955Z,7.81
2022-11-13T15:52:51.908Z,7.77
2022-11-13T15:55:24.943Z,7.73
2022-11-13T15:57:54.055Z,7.73
2022-11-13T16:00:26.134Z,7.67
2022-11-13T16:02:57.414Z,7.60
2022-11-13T16:05:28.961Z,7.53
2022-11-13T16:07:57.835Z,7.46
2022-11-13T16:10:26.560Z,7.36
2022-11-13T16:12:55.560Z,7.32
2022-11-13T16:15:24.249Z,7.25
2022-11-13T16:17:54.864Z,7.21
2022-11-13T16:20:25.261Z,7.15
2022-11-13T16:22:54.917Z,7.11
2022-11-13T16:25:24.026Z,7.04
2022-11-13T16:27:53.092Z,6.98
2022-11-13T16:30:23.242Z,6.91
2022-11-13T16:32:51.980Z,6.88
2022-11-13T16:35:21.531Z,6.80
2022-11-13T16:37:51.545Z,6.72
2022-11-13T16:40:22.719Z,6.70
2022-11-13T16:42:51.616Z,6.66
2022-11-13T16:45:20.875Z,6.65
2022-11-13T16:47:50.438Z,6.67
2022-11-13T16:50:20.786Z,6.67
2022-11-13T16:52:50.857Z,6.57
2022-11-13T16:55:19.528Z,6.53
2022-11-13T16:57:48.193Z,6.53
2022-11-13T17:00:19.521Z,6.45
2022-11-13T17:02:51.353Z,6.42
2022-11-13T17:05:21.462Z,6.36
2022-11-13T17:07:51.889Z,6.33
2022-11-13T17:10:31.280Z,6.19
2022-11-13T17:13:01.195Z,6.20
2022-11-13T17:15:30.073Z,6.18
2022-11-13T17:17:59.172Z,6.15
2022-11-13T17:20:28.255Z,6.14
2022-11-13T17:22:58.324Z,6.13
2022-11-13T17:25:28.077Z,6.16
2022-11-13T17:27:57.177Z,6.13
2022-11-13T17:30:25.864Z,6.12
2022-11-13T17:32:54.555Z,6.15
2022-11-13T17:35:23.252Z,6.11
2022-11-13T17:37:51.897Z,6.14
2022-11-13T17:40:22.002Z,6.13
2022-11-13T17:42:50.674Z,6.08
2022-11-13T17:45:19.503Z,6.07
2022-11-13T17:47:49.969Z,6.01
2022-11-13T17:50:18.797Z,6.09
2022-11-13T17:52:47.535Z,6.07
2022-11-13T17:55:17.320Z,6.03
2022-11-13T17:57:47.412Z,6.02
2022-11-13T18:00:17.342Z,5.93
2022-11-13T18:02:46.503Z,5.90
2022-11-13T18:05:15.233Z,5.92
2022-11-13T18:07:43.904Z,5.82
2022-11-13T18:10:12.564Z,5.78
2022-11-13T18:12:41.215Z,5.73
2022-11-13T18:15:11.516Z,5.68
2022-11-13T18:17:40.290Z,5.63
2022-11-13T18:20:09.820Z,5.62
2022-11-13T18:22:38.475Z,5.56
2022-11-13T18:25:08.149Z,5.53
2022-11-13T18:27:40.043Z,5.46
2022-11-13T18:30:11.632Z,5.42
2022-11-13T18:32:40.288Z,5.51
2022-11-13T18:35:09.531Z,5.49
2022-11-13T18:37:38.234Z,5.48
2022-11-13T18:40:08.344Z,5.49
2022-11-13T18:42:36.977Z,5.49
2022-11-13T18:45:06.630Z,5.46
2022-11-13T18:47:36.694Z,5.44
2022-11-13T18:50:06.118Z,5.33
2022-11-13T18:52:34.750Z,5.24
2022-11-13T18:55:03.415Z,5.19
2022-11-13T18:57:32.065Z,5.21
2022-11-13T19:00:00.752Z,5.19
2022-11-13T19:02:29.321Z,5.09
2022-11-13T19:04:59.498Z,5.07
2022-11-13T19:07:28.228Z,5.04
2022-11-13T19:09:56.902Z,5.09
2022-11-13T19:12:25.517Z,5.13
2022-11-13T19:14:54.186Z,5.09
2022-11-13T19:17:22.816Z,5.08
2022-11-13T19:19:51.420Z,5.08
2022-11-13T19:22:21.403Z,5.08
2022-11-13T19:24:50.020Z,5.04
2022-11-13T19:27:18.614Z,5.00
2022-11-13T19:29:47.255Z,4.99
2022-11-13T19:32:15.934Z,4.91
2022-11-13T19:34:46.561Z,4.87
2022-11-13T19:37:19.067Z,4.87
2022-11-13T19:39:49.459Z,4.84
2022-11-13T19:42:18.236Z,4.81
2022-11-13T19:44:48.359Z,4.79
2022-11-13T19:47:17.003Z,4.72
2022-11-13T19:49:45.964Z,4.69
2022-11-13T19:52:14.692Z,4.69
2022-11-13T19:54:43.357Z,4.65
2022-11-13T19:57:13.384Z,4.64
2022-11-13T19:59:41.994Z,4.61
2022-11-13T20:02:11.251Z,4.53
2022-11-13T20:04:39.917Z,4.51
2022-11-13T20:07:08.626Z,4.52
2022-11-13T20:09:37.397Z,4.43
2022-11-13T20:12:06.649Z,4.43
2022-11-13T20:14:38.694Z,4.44
2022-11-13T20:17:07.507Z,4.48
2022-11-13T20:19:36.194Z,4.46
2022-11-13T20:22:04.849Z,4.40
2022-11-13T20:24:33.532Z,4.52
2022-11-13T20:27:02.172Z,4.59
2022-11-13T20:29:32.255Z,4.45
2022-11-13T20:32:02.335Z,4.40
2022-11-13T20:34:30.990Z,4.36
2022-11-13T20:36:59.667Z,4.28
2022-11-13T20:39:28.327Z,4.28
2022-11-13T20:41:57.055Z,4.21
2022-11-13T20:44:25.765Z,4.09
2022-11-13T20:46:54.403Z,4.11
2022-11-13T20:49:24.720Z,4.17
2022-11-13T20:51:57.018Z,4.20
2022-11-13T20:54:25.974Z,4.15
2022-11-13T20:56:54.592Z,4.21
2022-11-13T20:59:23.258Z,4.24
2022-11-13T21:01:51.968Z,4.07
2022-11-13T21:04:20.871Z,4.08
2022-11-13T21:06:52.286Z,3.97
2022-11-13T21:09:20.986Z,4.00
2022-11-13T21:11:49.633Z,4.00
2022-11-13T21:14:18.306Z,3.94
2022-11-13T21:16:46.958Z,3.90
2022-11-13T21:19:15.659Z,3.87
2022-11-13T21:21:44.445Z,3.87
2022-11-13T21:24:14.956Z,3.93
2022-11-13T21:26:43.645Z,3.85
2022-11-13T21:29:12.270Z,3.91
2022-11-13T21:31:40.910Z,3.85
2022-11-13T21:34:10.626Z,3.88
2022-11-13T21:36:39.267Z,3.79
2022-11-13T21:39:08.017Z,3.82
2022-11-13T21:41:38.055Z,3.74
2022-11-13T21:44:08.810Z,3.67
2022-11-13T21:46:38.710Z,3.73
2022-11-13T21:49:09.566Z,3.80
2022-11-13T21:51:39.367Z,3.61
2022-11-13T21:54:08.574Z,3.65
2022-11-13T21:56:39.641Z,3.67
2022-11-13T21:59:08.580Z,3.56
2022-11-13T22:01:38.832Z,3.60
2022-11-13T22:04:07.897Z,3.62
2022-11-13T22:06:37.105Z,3.48
2022-11-13T22:09:08.567Z,3.49
2022-11-13T22:11:38.891Z,3.39
2022-11-13T22:14:07.727Z,3.36
2022-11-13T22:16:38.361Z,3.38
2022-11-13T22:19:10.922Z,3.36
2022-11-13T22:21:39.999Z,3.42
2022-11-13T22:24:09.174Z,3.39
2022-11-13T22:26:40.554Z,3.36
2022-11-13T22:29:09.770Z,3.21
2022-11-13T22:31:39.675Z,3.22
2022-11-13T22:34:08.466Z,3.22
2022-11-13T22:36:37.915Z,3.23
2022-11-13T22:39:07.103Z,3.21
2022-11-13T22:41:36.814Z,3.21
2022-11-13T22:44:08.303Z,3.20
2022-11-13T22:46:37.382Z,3.16
2022-11-13T22:49:06.857Z,3.19
2022-11-13T22:51:38.243Z,3.13
2022-11-13T22:54:08.718Z,3.12
2022-11-13T22:56:38.983Z,3.11
2022-11-13T22:59:10.805Z,3.16
2022-11-13T23:01:41.134Z,3.21
2022-11-13T23:04:12.799Z,3.11
2022-11-13T23:06:42.873Z,3.12
2022-11-13T23:09:11.732Z,3.09
2022-11-13T23:11:42.322Z,3.08
2022-11-13T23:14:14.034Z,3.09
2022-11-13T23:16:42.845Z,3.01
2022-11-13T23:19:11.496Z,3.06
2022-11-13T23:21:40.240Z,3.04
2022-11-13T23:24:11.213Z,3.06
2022-11-13T23:26:40.163Z,3.04
2022-11-13T23:29:08.981Z,3.06
2022-11-13T23:31:38.924Z,3.01
2022-11-13T23:34:07.760Z,2.98
2022-11-13T23:36:36.370Z,2.90
2022-11-13T23:39:04.949Z,2.98
2022-11-13T23:41:33.535Z,2.87
2022-11-13T23:44:08.857Z,2.91
2022-11-13T23:46:39.397Z,2.92
2022-11-13T23:49:08.084Z,2.92
2022-11-13T23:51:36.678Z,2.94
2022-11-13T23:54:05.538Z,2.99
2022-11-13T23:56:34.172Z,2.99
2022-11-13T23:59:02.762Z,2.89
